首页
METAR-TAF:

METAR-TAF

机场 :

大分機場

大分, 日本

纬度: 33-29N, 经度: 131-44E, 海拔: 5米

当前天气观测

该预报发布于50分钟前的08:00 UTC
风速3节,风向南转南东,在之间变化
温度 12°C
湿度 54%
气压 1021 hPa
能见度10公里或以上
少量云层高于3500英尺
散云层高于15000英尺
多云

METAR: RJFO 040800Z 15003KT 100V190 9999 FEW035 SCT150 BKN/// 12/03 Q1021

时间: 17:50 (08:50 UTC)

预报

该预报发布于3小时和40分钟前的05:10 UTC
预报有效从04日的 06点(UTC)到 05日的 12点(UTC)
风速7节,风向东转东北
能见度10公里或以上
少量云层高于4000英尺
成为
从 04日的 08点(UTC)到 04日的 10点(UTC)
风速4节,风向西转西南
成为
从 04日的 16点(UTC)到 04日的 18点(UTC)
风速11节,风向东转东北
短暂存在
从 04日的 21点(UTC)到 05日的 00点(UTC)
能見度: 4000
少量云层高于300英尺
散云层高于500英尺
多云层高于800英尺
阵雨, 轻雾
短暂存在
从 05日的 00点(UTC)到 05日的 09点(UTC)
少量云层高于300英尺
散云层高于500英尺
多云层高于800英尺
短暂存在
从 05日的 09点(UTC)到 05日的 12点(UTC)
能見度: 4000
少量云层高于300英尺
散云层高于500英尺
多云层高于800英尺
阵雨, 轻雾,

TAF: RJFO 040510Z 0406/0512 06007KT 9999 FEW040 BECMG 0408/0410 24004KT BECMG 0416/0418 06011KT TEMPO 0421/0500 4000 SHRA BR FEW003 SCT005 BKN008 TEMPO 0500/0509 FEW003 SCT005 BKN008 TEMPO 0509/0512 4000 SHRA BR FEW003 SCT005 BKN008

超过4000个机场的气象观测和天气预报(METAR&TAF报告)。

可查询的气象台以黄色和红色小点在地图上表示。

将鼠标移到小点上方,可查看气象台名称。

然后点击查看天气观测和预报。

如需切换地图:点击带黑十字的绿色按钮放大地图;点击带横线的绿色按钮缩小地图;或者点击绿色箭头查看邻近地区的地图。


METAR-TAF: